sensor_id;sensor_type;location;lat;lon;timestamp;temperature;humidity
19365;DHT22;9818;48.382;10.850;2022-08-19T00:00:46;19.60;99.90
19365;DHT22;9818;48.382;10.850;2022-08-19T00:03:15;19.50;99.90
19365;DHT22;9818;48.382;10.850;2022-08-19T00:05:44;19.50;99.90
19365;DHT22;9818;48.382;10.850;2022-08-19T00:08:13;19.40;99.90
19365;DHT22;9818;48.382;10.850;2022-08-19T00:10:41;19.40;99.90
19365;DHT22;9818;48.382;10.850;2022-08-19T00:13:11;19.30;99.90
19365;DHT22;9818;48.382;10.850;2022-08-19T00:15:40;19.40;99.90
19365;DHT22;9818;48.382;10.850;2022-08-19T00:18:12;19.40;99.90
19365;DHT22;9818;48.382;10.850;2022-08-19T00:20:41;19.40;99.90
19365;DHT22;9818;48.382;10.850;2022-08-19T00:23:09;19.40;99.90
19365;DHT22;9818;48.382;10.850;2022-08-19T00:25:38;19.30;99.90
19365;DHT22;9818;48.382;10.850;2022-08-19T00:28:06;19.30;99.90
19365;DHT22;9818;48.382;10.850;2022-08-19T00:30:34;19.30;99.90
19365;DHT22;9818;48.382;10.850;2022-08-19T00:33:03;19.20;99.90
19365;DHT22;9818;48.382;10.850;2022-08-19T00:35:36;19.20;99.90
19365;DHT22;9818;48.382;10.850;2022-08-19T00:38:04;19.20;99.90
19365;DHT22;9818;48.382;10.850;2022-08-19T00:40:33;19.10;99.90
19365;DHT22;9818;48.382;10.850;2022-08-19T00:43:07;19.10;99.90
19365;DHT22;9818;48.382;10.850;2022-08-19T00:45:36;19.10;99.90
19365;DHT22;9818;48.382;10.850;2022-08-19T00:48:06;19.10;99.90
19365;DHT22;9818;48.382;10.850;2022-08-19T00:50:37;19.10;99.90
19365;DHT22;9818;48.382;10.850;2022-08-19T00:53:08;19.10;99.90
19365;DHT22;9818;48.382;10.850;2022-08-19T00:55:37;19.10;99.90
19365;DHT22;9818;48.382;10.850;2022-08-19T00:58:08;19.10;99.90
19365;DHT22;9818;48.382;10.850;2022-08-19T01:00:38;19.10;99.90
19365;DHT22;9818;48.382;10.850;2022-08-19T01:03:07;19.00;99.90
19365;DHT22;9818;48.382;10.850;2022-08-19T01:05:41;19.00;99.90
19365;DHT22;9818;48.382;10.850;2022-08-19T01:21:03;18.90;99.90
19365;DHT22;9818;48.382;10.850;2022-08-19T01:23:37;18.90;99.90
19365;DHT22;9818;48.382;10.850;2022-08-19T01:26:14;18.90;99.90
19365;DHT22;9818;48.382;10.850;2022-08-19T01:28:45;18.90;99.90
19365;DHT22;9818;48.382;10.850;2022-08-19T01:31:19;18.90;99.90
19365;DHT22;9818;48.382;10.850;2022-08-19T01:33:48;18.80;99.90
19365;DHT22;9818;48.382;10.850;2022-08-19T01:36:24;18.80;99.90
19365;DHT22;9818;48.382;10.850;2022-08-19T01:38:56;18.90;99.90
19365;DHT22;9818;48.382;10.850;2022-08-19T01:41:25;18.90;99.90
19365;DHT22;9818;48.382;10.850;2022-08-19T01:43:54;18.90;99.90
19365;DHT22;9818;48.382;10.850;2022-08-19T01:46:23;18.90;99.90
19365;DHT22;9818;48.382;10.850;2022-08-19T01:48:52;18.90;99.90
19365;DHT22;9818;48.382;10.850;2022-08-19T01:51:20;18.90;99.90
19365;DHT22;9818;48.382;10.850;2022-08-19T01:53:50;18.90;99.90
19365;DHT22;9818;48.382;10.850;2022-08-19T01:56:23;18.90;99.90
19365;DHT22;9818;48.382;10.850;2022-08-19T01:58:55;18.90;99.90
19365;DHT22;9818;48.382;10.850;2022-08-19T02:01:25;18.90;99.90
19365;DHT22;9818;48.382;10.850;2022-08-19T02:03:57;18.80;99.90
19365;DHT22;9818;48.382;10.850;2022-08-19T02:06:27;18.70;99.90
19365;DHT22;9818;48.382;10.850;2022-08-19T02:08:56;18.70;99.90
19365;DHT22;9818;48.382;10.850;2022-08-19T02:11:29;18.70;99.90
19365;DHT22;9818;48.382;10.850;2022-08-19T02:14:00;18.70;99.90
19365;DHT22;9818;48.382;10.850;2022-08-19T02:16:29;18.70;99.90
19365;DHT22;9818;48.382;10.850;2022-08-19T02:18:58;18.70;99.90
19365;DHT22;9818;48.382;10.850;2022-08-19T02:21:28;18.60;99.90
19365;DHT22;9818;48.382;10.850;2022-08-19T02:23:57;18.70;99.90
19365;DHT22;9818;48.382;10.850;2022-08-19T02:26:29;18.70;99.90
19365;DHT22;9818;48.382;10.850;2022-08-19T02:28:57;18.70;99.90
19365;DHT22;9818;48.382;10.850;2022-08-19T02:31:27;18.70;99.90
19365;DHT22;9818;48.382;10.850;2022-08-19T02:33:57;18.70;99.90
19365;DHT22;9818;48.382;10.850;2022-08-19T02:36:27;18.70;99.90
19365;DHT22;9818;48.382;10.850;2022-08-19T02:38:55;18.70;99.90
19365;DHT22;9818;48.382;10.850;2022-08-19T02:41:24;18.70;99.90
19365;DHT22;9818;48.382;10.850;2022-08-19T02:43:57;18.70;99.90
19365;DHT22;9818;48.382;10.850;2022-08-19T02:46:29;18.70;99.90
19365;DHT22;9818;48.382;10.850;2022-08-19T02:49:00;18.70;99.90
19365;DHT22;9818;48.382;10.850;2022-08-19T02:51:32;18.60;99.90
19365;DHT22;9818;48.382;10.850;2022-08-19T02:54:03;18.60;99.90
19365;DHT22;9818;48.382;10.850;2022-08-19T02:56:34;18.60;99.90
19365;DHT22;9818;48.382;10.850;2022-08-19T02:59:06;18.60;99.90
19365;DHT22;9818;48.382;10.850;2022-08-19T03:01:35;18.70;99.90
19365;DHT22;9818;48.382;10.850;2022-08-19T03:04:06;18.60;99.90
19365;DHT22;9818;48.382;10.850;2022-08-19T03:06:36;18.60;99.90
19365;DHT22;9818;48.382;10.850;2022-08-19T03:09:05;18.60;99.90
19365;DHT22;9818;48.382;10.850;2022-08-19T03:11:34;18.70;99.90
19365;DHT22;9818;48.382;10.850;2022-08-19T03:14:08;18.70;99.90
19365;DHT22;9818;48.382;10.850;2022-08-19T03:16:41;18.80;99.90
19365;DHT22;9818;48.382;10.850;2022-08-19T03:19:11;18.80;99.90
19365;DHT22;9818;48.382;10.850;2022-08-19T03:21:42;18.80;99.90
19365;DHT22;9818;48.382;10.850;2022-08-19T03:24:11;18.80;99.90
19365;DHT22;9818;48.382;10.850;2022-08-19T03:26:40;18.90;99.90
19365;DHT22;9818;48.382;10.850;2022-08-19T03:29:11;18.80;99.90
19365;DHT22;9818;48.382;10.850;2022-08-19T03:31:40;18.80;99.90
19365;DHT22;9818;48.382;10.850;2022-08-19T03:34:09;18.80;99.90
19365;DHT22;9818;48.382;10.850;2022-08-19T03:36:38;18.70;99.90
19365;DHT22;9818;48.382;10.850;2022-08-19T03:39:07;18.80;99.90
19365;DHT22;9818;48.382;10.850;2022-08-19T03:41:36;18.70;99.90
19365;DHT22;9818;48.382;10.850;2022-08-19T03:44:05;18.70;99.90
19365;DHT22;9818;48.382;10.850;2022-08-19T03:46:37;18.80;99.90
19365;DHT22;9818;48.382;10.850;2022-08-19T03:49:05;18.70;99.90
19365;DHT22;9818;48.382;10.850;2022-08-19T03:51:35;18.80;99.90
19365;DHT22;9818;48.382;10.850;2022-08-19T03:54:06;18.70;99.90
19365;DHT22;9818;48.382;10.850;2022-08-19T03:56:35;18.70;99.90
19365;DHT22;9818;48.382;10.850;2022-08-19T03:59:04;18.70;99.90
19365;DHT22;9818;48.382;10.850;2022-08-19T04:01:34;18.70;99.90
19365;DHT22;9818;48.382;10.850;2022-08-19T04:04:05;18.70;99.90
19365;DHT22;9818;48.382;10.850;2022-08-19T04:06:35;18.70;99.90
19365;DHT22;9818;48.382;10.850;2022-08-19T04:09:04;18.70;99.90
19365;DHT22;9818;48.382;10.850;2022-08-19T04:11:35;18.80;99.90
19365;DHT22;9818;48.382;10.850;2022-08-19T04:14:06;18.80;99.90
19365;DHT22;9818;48.382;10.850;2022-08-19T04:16:35;18.80;99.90
19365;DHT22;9818;48.382;10.850;2022-08-19T04:19:06;18.90;99.90
19365;DHT22;9818;48.382;10.850;2022-08-19T04:21:35;18.90;99.90
19365;DHT22;9818;48.382;10.850;2022-08-19T04:24:04;18.90;99.90
19365;DHT22;9818;48.382;10.850;2022-08-19T04:26:33;18.90;99.90
19365;DHT22;9818;48.382;10.850;2022-08-19T04:29:04;19.00;99.90
19365;DHT22;9818;48.382;10.850;2022-08-19T04:31:33;18.90;99.90
19365;DHT22;9818;48.382;10.850;2022-08-19T04:34:03;19.00;99.90
19365;DHT22;9818;48.382;10.850;2022-08-19T04:36:35;19.00;99.90
19365;DHT22;9818;48.382;10.850;2022-08-19T04:39:06;19.00;99.90
19365;DHT22;9818;48.382;10.850;2022-08-19T04:41:35;19.00;99.90
19365;DHT22;9818;48.382;10.850;2022-08-19T04:44:16;19.00;99.90
19365;DHT22;9818;48.382;10.850;2022-08-19T04:46:45;19.00;99.90
19365;DHT22;9818;48.382;10.850;2022-08-19T04:49:15;18.90;99.90
19365;DHT22;9818;48.382;10.850;2022-08-19T04:51:47;18.90;99.90
19365;DHT22;9818;48.382;10.850;2022-08-19T04:54:17;18.90;99.90
19365;DHT22;9818;48.382;10.850;2022-08-19T04:56:47;18.90;99.90
19365;DHT22;9818;48.382;10.850;2022-08-19T04:59:18;19.00;99.90
19365;DHT22;9818;48.382;10.850;2022-08-19T05:01:47;19.00;99.90
19365;DHT22;9818;48.382;10.850;2022-08-19T05:04:16;19.00;99.90
19365;DHT22;9818;48.382;10.850;2022-08-19T05:06:48;19.10;99.90
19365;DHT22;9818;48.382;10.850;2022-08-19T05:09:17;19.10;99.90
19365;DHT22;9818;48.382;10.850;2022-08-19T05:11:47;19.20;99.90
19365;DHT22;9818;48.382;10.850;2022-08-19T05:14:18;19.10;99.90
19365;DHT22;9818;48.382;10.850;2022-08-19T05:16:47;19.10;99.90
19365;DHT22;9818;48.382;10.850;2022-08-19T05:19:15;19.10;99.90
19365;DHT22;9818;48.382;10.850;2022-08-19T05:21:58;19.10;99.90
19365;DHT22;9818;48.382;10.850;2022-08-19T05:24:39;19.10;99.90
19365;DHT22;9818;48.382;10.850;2022-08-19T05:27:08;19.10;99.90
19365;DHT22;9818;48.382;10.850;2022-08-19T05:29:36;19.10;99.90
19365;DHT22;9818;48.382;10.850;2022-08-19T05:32:05;19.10;99.90
19365;DHT22;9818;48.382;10.850;2022-08-19T05:34:34;19.20;99.90
19365;DHT22;9818;48.382;10.850;2022-08-19T05:37:06;19.20;99.90
19365;DHT22;9818;48.382;10.850;2022-08-19T05:39:35;19.20;99.90
19365;DHT22;9818;48.382;10.850;2022-08-19T05:42:05;19.20;99.90
19365;DHT22;9818;48.382;10.850;2022-08-19T05:44:34;19.30;99.90
19365;DHT22;9818;48.382;10.850;2022-08-19T05:47:04;19.20;99.90
19365;DHT22;9818;48.382;10.850;2022-08-19T05:49:35;19.30;99.90
19365;DHT22;9818;48.382;10.850;2022-08-19T05:52:07;19.30;99.90
19365;DHT22;9818;48.382;10.850;2022-08-19T05:54:36;19.30;99.90
19365;DHT22;9818;48.382;10.850;2022-08-19T05:57:05;19.40;99.90
19365;DHT22;9818;48.382;10.850;2022-08-19T05:59:34;19.50;99.90
19365;DHT22;9818;48.382;10.850;2022-08-19T06:02:04;19.50;99.90
19365;DHT22;9818;48.382;10.850;2022-08-19T06:04:33;19.50;99.90
19365;DHT22;9818;48.382;10.850;2022-08-19T06:07:02;19.50;99.90
19365;DHT22;9818;48.382;10.850;2022-08-19T06:09:33;19.40;99.90
19365;DHT22;9818;48.382;10.850;2022-08-19T06:12:02;19.40;99.90
19365;DHT22;9818;48.382;10.850;2022-08-19T06:14:31;19.40;99.90
19365;DHT22;9818;48.382;10.850;2022-08-19T06:17:01;19.40;99.90
19365;DHT22;9818;48.382;10.850;2022-08-19T06:19:30;19.50;99.90
19365;DHT22;9818;48.382;10.850;2022-08-19T06:21:59;19.60;99.90
19365;DHT22;9818;48.382;10.850;2022-08-19T06:24:28;19.60;99.90
19365;DHT22;9818;48.382;10.850;2022-08-19T06:27:00;19.50;99.90
19365;DHT22;9818;48.382;10.850;2022-08-19T06:29:30;19.70;99.90
19365;DHT22;9818;48.382;10.850;2022-08-19T06:32:01;19.70;99.90
19365;DHT22;9818;48.382;10.850;2022-08-19T06:34:30;19.70;99.90
19365;DHT22;9818;48.382;10.850;2022-08-19T06:37:00;19.80;99.90
19365;DHT22;9818;48.382;10.850;2022-08-19T06:39:33;19.80;99.90
19365;DHT22;9818;48.382;10.850;2022-08-19T06:42:06;19.70;99.90
19365;DHT22;9818;48.382;10.850;2022-08-19T06:44:37;19.70;99.90
19365;DHT22;9818;48.382;10.850;2022-08-19T06:47:07;19.70;99.90
19365;DHT22;9818;48.382;10.850;2022-08-19T06:49:35;19.60;99.90
19365;DHT22;9818;48.382;10.850;2022-08-19T06:52:04;19.60;99.90
19365;DHT22;9818;48.382;10.850;2022-08-19T06:54:33;19.60;99.90
19365;DHT22;9818;48.382;10.850;2022-08-19T06:57:02;19.70;99.90
19365;DHT22;9818;48.382;10.850;2022-08-19T06:59:33;19.60;99.90
19365;DHT22;9818;48.382;10.850;2022-08-19T07:02:04;19.50;99.90
19365;DHT22;9818;48.382;10.850;2022-08-19T07:04:33;19.50;99.90
19365;DHT22;9818;48.382;10.850;2022-08-19T07:07:04;19.60;99.90
19365;DHT22;9818;48.382;10.850;2022-08-19T07:09:35;19.60;99.90
19365;DHT22;9818;48.382;10.850;2022-08-19T07:12:05;19.60;99.90
19365;DHT22;9818;48.382;10.850;2022-08-19T07:14:37;19.60;99.90
19365;DHT22;9818;48.382;10.850;2022-08-19T07:17:07;19.60;99.90
19365;DHT22;9818;48.382;10.850;2022-08-19T07:19:36;19.70;99.90
19365;DHT22;9818;48.382;10.850;2022-08-19T07:22:06;19.70;99.90
19365;DHT22;9818;48.382;10.850;2022-08-19T07:24:35;19.80;99.90
19365;DHT22;9818;48.382;10.850;2022-08-19T07:27:04;19.80;99.90
19365;DHT22;9818;48.382;10.850;2022-08-19T07:29:37;19.70;99.90
19365;DHT22;9818;48.382;10.850;2022-08-19T07:32:06;19.70;99.90
19365;DHT22;9818;48.382;10.850;2022-08-19T07:34:36;19.70;99.90
19365;DHT22;9818;48.382;10.850;2022-08-19T07:37:05;19.70;99.90
19365;DHT22;9818;48.382;10.850;2022-08-19T07:39:35;19.60;99.90
19365;DHT22;9818;48.382;10.850;2022-08-19T07:42:04;19.60;99.90
19365;DHT22;9818;48.382;10.850;2022-08-19T07:44:37;19.70;99.90
19365;DHT22;9818;48.382;10.850;2022-08-19T07:47:06;19.60;99.90
19365;DHT22;9818;48.382;10.850;2022-08-19T07:49:35;19.50;99.90
19365;DHT22;9818;48.382;10.850;2022-08-19T07:52:04;19.50;99.90
19365;DHT22;9818;48.382;10.850;2022-08-19T07:54:34;19.50;99.90
19365;DHT22;9818;48.382;10.850;2022-08-19T07:57:03;19.60;99.90
19365;DHT22;9818;48.382;10.850;2022-08-19T07:59:32;19.50;99.90
19365;DHT22;9818;48.382;10.850;2022-08-19T08:02:03;19.50;99.90
19365;DHT22;9818;48.382;10.850;2022-08-19T08:04:31;19.50;99.90
19365;DHT22;9818;48.382;10.850;2022-08-19T08:07:12;19.60;99.90
19365;DHT22;9818;48.382;10.850;2022-08-19T08:09:53;19.40;99.90
19365;DHT22;9818;48.382;10.850;2022-08-19T08:12:23;19.40;99.90
19365;DHT22;9818;48.382;10.850;2022-08-19T08:14:54;19.40;99.90
19365;DHT22;9818;48.382;10.850;2022-08-19T08:17:26;19.50;99.90
19365;DHT22;9818;48.382;10.850;2022-08-19T08:19:55;19.50;99.90
19365;DHT22;9818;48.382;10.850;2022-08-19T08:22:25;19.50;99.90
19365;DHT22;9818;48.382;10.850;2022-08-19T08:25:13;19.50;99.90
19365;DHT22;9818;48.382;10.850;2022-08-19T08:28:00;19.60;99.90
19365;DHT22;9818;48.382;10.850;2022-08-19T08:30:45;19.80;99.90
19365;DHT22;9818;48.382;10.850;2022-08-19T08:33:33;19.50;99.90
19365;DHT22;9818;48.382;10.850;2022-08-19T08:36:14;19.40;99.90
19365;DHT22;9818;48.382;10.850;2022-08-19T08:38:50;19.50;99.90
19365;DHT22;9818;48.382;10.850;2022-08-19T08:41:34;19.50;99.90
19365;DHT22;9818;48.382;10.850;2022-08-19T08:44:14;19.60;99.90
19365;DHT22;9818;48.382;10.850;2022-08-19T08:46:53;19.60;99.90
19365;DHT22;9818;48.382;10.850;2022-08-19T08:49:45;19.60;99.90
19365;DHT22;9818;48.382;10.850;2022-08-19T08:52:30;19.30;99.90
19365;DHT22;9818;48.382;10.850;2022-08-19T08:55:26;19.20;99.90
19365;DHT22;9818;48.382;10.850;2022-08-19T08:58:09;19.10;99.90
19365;DHT22;9818;48.382;10.850;2022-08-19T09:00:54;19.30;99.90
19365;DHT22;9818;48.382;10.850;2022-08-19T09:03:39;19.20;99.90
19365;DHT22;9818;48.382;10.850;2022-08-19T09:12:18;19.50;99.90
19365;DHT22;9818;48.382;10.850;2022-08-19T09:15:16;19.80;99.90
19365;DHT22;9818;48.382;10.850;2022-08-19T09:17:58;19.90;99.90
19365;DHT22;9818;48.382;10.850;2022-08-19T09:20:41;19.90;99.90
19365;DHT22;9818;48.382;10.850;2022-08-19T09:23:15;20.00;99.90
19365;DHT22;9818;48.382;10.850;2022-08-19T09:25:52;19.80;99.90
19365;DHT22;9818;48.382;10.850;2022-08-19T09:28:45;19.80;99.90
19365;DHT22;9818;48.382;10.850;2022-08-19T09:31:25;19.70;99.90
19365;DHT22;9818;48.382;10.850;2022-08-19T09:33:59;19.60;99.90
19365;DHT22;9818;48.382;10.850;2022-08-19T09:36:39;19.60;99.90
19365;DHT22;9818;48.382;10.850;2022-08-19T09:39:17;19.60;99.90
19365;DHT22;9818;48.382;10.850;2022-08-19T09:41:55;19.40;99.90
19365;DHT22;9818;48.382;10.850;2022-08-19T09:53:19;19.20;99.90
19365;DHT22;9818;48.382;10.850;2022-08-19T09:56:20;19.20;99.90
19365;DHT22;9818;48.382;10.850;2022-08-19T09:59:01;19.30;99.90
19365;DHT22;9818;48.382;10.850;2022-08-19T10:01:53;19.40;99.90
19365;DHT22;9818;48.382;10.850;2022-08-19T10:04:37;19.40;99.90
19365;DHT22;9818;48.382;10.850;2022-08-19T10:07:27;19.50;99.90
19365;DHT22;9818;48.382;10.850;2022-08-19T10:10:19;19.50;99.90
19365;DHT22;9818;48.382;10.850;2022-08-19T10:13:03;19.40;99.90
19365;DHT22;9818;48.382;10.850;2022-08-19T10:15:47;19.40;99.90
19365;DHT22;9818;48.382;10.850;2022-08-19T10:18:30;19.50;99.90
19365;DHT22;9818;48.382;10.850;2022-08-19T10:21:17;19.40;99.90
19365;DHT22;9818;48.382;10.850;2022-08-19T10:24:02;19.40;99.90
19365;DHT22;9818;48.382;10.850;2022-08-19T10:26:50;19.40;99.90
19365;DHT22;9818;48.382;10.850;2022-08-19T10:29:33;19.40;99.90
19365;DHT22;9818;48.382;10.850;2022-08-19T10:32:16;19.40;99.90
19365;DHT22;9818;48.382;10.850;2022-08-19T10:35:04;19.30;99.90
19365;DHT22;9818;48.382;10.850;2022-08-19T10:37:49;19.30;99.90
19365;DHT22;9818;48.382;10.850;2022-08-19T10:40:33;19.30;99.90
19365;DHT22;9818;48.382;10.850;2022-08-19T10:43:20;19.20;99.90
19365;DHT22;9818;48.382;10.850;2022-08-19T10:46:03;19.20;99.90
19365;DHT22;9818;48.382;10.850;2022-08-19T10:48:47;19.10;99.90
19365;DHT22;9818;48.382;10.850;2022-08-19T10:51:29;19.20;99.90
19365;DHT22;9818;48.382;10.850;2022-08-19T10:54:12;19.20;99.90
19365;DHT22;9818;48.382;10.850;2022-08-19T10:56:55;19.10;99.90
19365;DHT22;9818;48.382;10.850;2022-08-19T10:59:36;19.00;99.90
19365;DHT22;9818;48.382;10.850;2022-08-19T11:02:10;19.00;99.90
19365;DHT22;9818;48.382;10.850;2022-08-19T11:04:42;18.90;99.90
19365;DHT22;9818;48.382;10.850;2022-08-19T11:07:15;18.70;99.90
19365;DHT22;9818;48.382;10.850;2022-08-19T11:09:48;18.60;99.90
19365;DHT22;9818;48.382;10.850;2022-08-19T11:12:23;18.50;99.90
19365;DHT22;9818;48.382;10.850;2022-08-19T11:15:07;18.40;99.90
19365;DHT22;9818;48.382;10.850;2022-08-19T11:17:40;18.40;99.90
19365;DHT22;9818;48.382;10.850;2022-08-19T11:20:14;18.40;99.90
19365;DHT22;9818;48.382;10.850;2022-08-19T11:22:46;18.30;99.90
19365;DHT22;9818;48.382;10.850;2022-08-19T11:25:20;18.20;99.90
19365;DHT22;9818;48.382;10.850;2022-08-19T11:27:52;18.30;99.90
19365;DHT22;9818;48.382;10.850;2022-08-19T11:30:30;18.40;99.90
19365;DHT22;9818;48.382;10.850;2022-08-19T11:33:02;18.40;99.90
19365;DHT22;9818;48.382;10.850;2022-08-19T11:35:38;18.40;99.90
19365;DHT22;9818;48.382;10.850;2022-08-19T11:38:10;18.30;99.90
19365;DHT22;9818;48.382;10.850;2022-08-19T11:40:53;18.20;99.90
19365;DHT22;9818;48.382;10.850;2022-08-19T11:43:35;18.20;99.90
19365;DHT22;9818;48.382;10.850;2022-08-19T11:46:22;18.20;99.90
19365;DHT22;9818;48.382;10.850;2022-08-19T11:48:55;18.10;99.90
19365;DHT22;9818;48.382;10.850;2022-08-19T11:51:31;18.10;99.90
19365;DHT22;9818;48.382;10.850;2022-08-19T11:54:04;18.10;99.90
19365;DHT22;9818;48.382;10.850;2022-08-19T11:56:40;18.10;99.90
19365;DHT22;9818;48.382;10.850;2022-08-19T11:59:48;18.10;99.90
19365;DHT22;9818;48.382;10.850;2022-08-19T12:05:26;18.30;99.90
19365;DHT22;9818;48.382;10.850;2022-08-19T12:08:01;18.30;99.90
19365;DHT22;9818;48.382;10.850;2022-08-19T12:10:34;18.40;99.90
19365;DHT22;9818;48.382;10.850;2022-08-19T12:13:12;18.40;99.90
19365;DHT22;9818;48.382;10.850;2022-08-19T12:15:48;18.50;99.90
19365;DHT22;9818;48.382;10.850;2022-08-19T12:18:33;18.50;99.90
19365;DHT22;9818;48.382;10.850;2022-08-19T12:21:21;18.60;99.90
19365;DHT22;9818;48.382;10.850;2022-08-19T12:23:55;18.70;99.90
19365;DHT22;9818;48.382;10.850;2022-08-19T12:26:27;18.70;99.90
19365;DHT22;9818;48.382;10.850;2022-08-19T12:29:02;18.70;99.90
19365;DHT22;9818;48.382;10.850;2022-08-19T12:31:36;18.80;99.90
19365;DHT22;9818;48.382;10.850;2022-08-19T12:34:08;18.80;99.90
19365;DHT22;9818;48.382;10.850;2022-08-19T12:36:45;18.80;99.90
19365;DHT22;9818;48.382;10.850;2022-08-19T12:39:22;18.90;99.90
19365;DHT22;9818;48.382;10.850;2022-08-19T12:41:50;19.00;99.90
19365;DHT22;9818;48.382;10.850;2022-08-19T12:44:19;19.10;99.90
19365;DHT22;9818;48.382;10.850;2022-08-19T12:46:47;19.10;99.90
19365;DHT22;9818;48.382;10.850;2022-08-19T12:49:16;19.10;99.90
19365;DHT22;9818;48.382;10.850;2022-08-19T12:51:47;19.30;99.90
19365;DHT22;9818;48.382;10.850;2022-08-19T12:54:17;19.40;99.90
19365;DHT22;9818;48.382;10.850;2022-08-19T12:56:45;19.50;99.90
19365;DHT22;9818;48.382;10.850;2022-08-19T12:59:14;19.80;99.90
19365;DHT22;9818;48.382;10.850;2022-08-19T13:01:44;19.90;99.90
19365;DHT22;9818;48.382;10.850;2022-08-19T13:04:13;20.10;99.90
19365;DHT22;9818;48.382;10.850;2022-08-19T13:06:42;20.30;99.90
19365;DHT22;9818;48.382;10.850;2022-08-19T13:09:14;20.50;99.90
19365;DHT22;9818;48.382;10.850;2022-08-19T13:11:42;20.60;99.90
19365;DHT22;9818;48.382;10.850;2022-08-19T13:14:11;20.60;99.90
19365;DHT22;9818;48.382;10.850;2022-08-19T13:16:40;20.60;99.90
19365;DHT22;9818;48.382;10.850;2022-08-19T13:19:08;20.60;99.90
19365;DHT22;9818;48.382;10.850;2022-08-19T13:21:38;20.60;99.90
19365;DHT22;9818;48.382;10.850;2022-08-19T13:24:07;20.70;99.90
19365;DHT22;9818;48.382;10.850;2022-08-19T13:26:39;20.70;99.90
19365;DHT22;9818;48.382;10.850;2022-08-19T13:29:07;20.60;99.90
19365;DHT22;9818;48.382;10.850;2022-08-19T13:31:48;20.60;99.90
19365;DHT22;9818;48.382;10.850;2022-08-19T13:34:32;20.60;99.90
19365;DHT22;9818;48.382;10.850;2022-08-19T13:37:04;20.50;99.90
19365;DHT22;9818;48.382;10.850;2022-08-19T13:39:34;20.60;99.90
19365;DHT22;9818;48.382;10.850;2022-08-19T13:42:06;20.60;99.90
19365;DHT22;9818;48.382;10.850;2022-08-19T13:44:36;20.40;99.90
19365;DHT22;9818;48.382;10.850;2022-08-19T13:47:06;20.40;99.90
19365;DHT22;9818;48.382;10.850;2022-08-19T13:49:38;20.30;99.90
19365;DHT22;9818;48.382;10.850;2022-08-19T13:52:07;20.50;99.90
19365;DHT22;9818;48.382;10.850;2022-08-19T13:54:35;20.50;99.90
19365;DHT22;9818;48.382;10.850;2022-08-19T13:57:07;20.40;99.90
19365;DHT22;9818;48.382;10.850;2022-08-19T13:59:35;20.40;99.90
19365;DHT22;9818;48.382;10.850;2022-08-19T14:02:04;20.30;99.90
19365;DHT22;9818;48.382;10.850;2022-08-19T14:04:33;20.30;99.90
19365;DHT22;9818;48.382;10.850;2022-08-19T14:07:03;20.40;99.90
19365;DHT22;9818;48.382;10.850;2022-08-19T14:09:32;20.20;99.90
19365;DHT22;9818;48.382;10.850;2022-08-19T14:12:01;20.20;99.90
19365;DHT22;9818;48.382;10.850;2022-08-19T14:14:32;20.10;99.90
19365;DHT22;9818;48.382;10.850;2022-08-19T14:17:05;20.00;99.90
19365;DHT22;9818;48.382;10.850;2022-08-19T14:19:35;19.90;99.90
19365;DHT22;9818;48.382;10.850;2022-08-19T14:22:04;19.90;99.90
19365;DHT22;9818;48.382;10.850;2022-08-19T14:24:32;19.90;99.90
19365;DHT22;9818;48.382;10.850;2022-08-19T14:27:01;19.90;99.90
19365;DHT22;9818;48.382;10.850;2022-08-19T14:29:32;20.00;99.90
19365;DHT22;9818;48.382;10.850;2022-08-19T14:32:01;20.00;99.90
19365;DHT22;9818;48.382;10.850;2022-08-19T14:34:29;19.80;99.90
19365;DHT22;9818;48.382;10.850;2022-08-19T14:36:59;19.80;99.90
19365;DHT22;9818;48.382;10.850;2022-08-19T14:39:27;19.70;99.90
19365;DHT22;9818;48.382;10.850;2022-08-19T14:41:56;19.90;99.90
19365;DHT22;9818;48.382;10.850;2022-08-19T14:44:24;19.80;99.90
19365;DHT22;9818;48.382;10.850;2022-08-19T14:46:56;19.80;99.90
19365;DHT22;9818;48.382;10.850;2022-08-19T14:49:24;20.00;99.90
19365;DHT22;9818;48.382;10.850;2022-08-19T14:51:53;20.30;99.90
19365;DHT22;9818;48.382;10.850;2022-08-19T14:54:22;20.20;99.90
19365;DHT22;9818;48.382;10.850;2022-08-19T14:56:50;20.20;99.90
19365;DHT22;9818;48.382;10.850;2022-08-19T14:59:19;20.10;99.90
19365;DHT22;9818;48.382;10.850;2022-08-19T15:01:47;20.10;99.90
19365;DHT22;9818;48.382;10.850;2022-08-19T15:04:18;20.10;99.90
19365;DHT22;9818;48.382;10.850;2022-08-19T15:06:47;20.00;99.90
19365;DHT22;9818;48.382;10.850;2022-08-19T15:09:16;20.00;99.90
19365;DHT22;9818;48.382;10.850;2022-08-19T15:11:44;19.90;99.90
19365;DHT22;9818;48.382;10.850;2022-08-19T15:14:15;19.90;99.90
19365;DHT22;9818;48.382;10.850;2022-08-19T15:16:43;19.80;99.90
19365;DHT22;9818;48.382;10.850;2022-08-19T15:19:12;19.70;99.90
19365;DHT22;9818;48.382;10.850;2022-08-19T15:21:43;19.60;99.90
19365;DHT22;9818;48.382;10.850;2022-08-19T15:24:12;19.50;99.90
19365;DHT22;9818;48.382;10.850;2022-08-19T15:26:40;19.50;99.90
19365;DHT22;9818;48.382;10.850;2022-08-19T15:29:09;19.40;99.90
19365;DHT22;9818;48.382;10.850;2022-08-19T15:31:38;19.40;99.90
19365;DHT22;9818;48.382;10.850;2022-08-19T15:34:06;19.30;99.90
19365;DHT22;9818;48.382;10.850;2022-08-19T15:36:35;19.30;99.90
19365;DHT22;9818;48.382;10.850;2022-08-19T15:39:07;19.20;99.90
19365;DHT22;9818;48.382;10.850;2022-08-19T15:41:36;19.20;99.90
19365;DHT22;9818;48.382;10.850;2022-08-19T15:44:06;19.20;99.90
19365;DHT22;9818;48.382;10.850;2022-08-19T15:46:37;19.10;99.90
19365;DHT22;9818;48.382;10.850;2022-08-19T15:49:06;19.00;99.90
19365;DHT22;9818;48.382;10.850;2022-08-19T15:51:34;19.00;99.90
19365;DHT22;9818;48.382;10.850;2022-08-19T15:54:04;19.10;99.90
19365;DHT22;9818;48.382;10.850;2022-08-19T15:56:36;19.10;99.90
19365;DHT22;9818;48.382;10.850;2022-08-19T15:59:26;19.20;99.90
19365;DHT22;9818;48.382;10.850;2022-08-19T16:02:07;19.20;99.90
19365;DHT22;9818;48.382;10.850;2022-08-19T16:04:48;19.30;99.90
19365;DHT22;9818;48.382;10.850;2022-08-19T16:07:28;19.40;99.90
19365;DHT22;9818;48.382;10.850;2022-08-19T16:09:57;19.50;99.90
19365;DHT22;9818;48.382;10.850;2022-08-19T16:12:28;19.50;99.90
19365;DHT22;9818;48.382;10.850;2022-08-19T16:14:57;19.60;99.90
19365;DHT22;9818;48.382;10.850;2022-08-19T16:17:26;19.60;99.90
19365;DHT22;9818;48.382;10.850;2022-08-19T16:19:54;19.50;99.90
19365;DHT22;9818;48.382;10.850;2022-08-19T16:22:27;19.50;99.90
19365;DHT22;9818;48.382;10.850;2022-08-19T16:24:56;19.50;99.90
19365;DHT22;9818;48.382;10.850;2022-08-19T16:27:24;19.50;99.90
19365;DHT22;9818;48.382;10.850;2022-08-19T16:29:57;19.40;99.90
19365;DHT22;9818;48.382;10.850;2022-08-19T16:32:26;19.50;99.90
19365;DHT22;9818;48.382;10.850;2022-08-19T16:34:54;19.50;99.90